sensor_id;sensor_type;location;lat;lon;timestamp;P1;durP1;ratioP1;P2;durP2;ratioP2
14167;SDS011;7163;50.626;12.922;2023-05-10T00:01:10;8.60;;;5.20;;
14167;SDS011;7163;50.626;12.922;2023-05-10T00:06:20;9.67;;;5.30;;
14167;SDS011;7163;50.626;12.922;2023-05-10T00:11:21;8.27;;;5.40;;
14167;SDS011;7163;50.626;12.922;2023-05-10T00:16:21;8.87;;;5.57;;
14167;SDS011;7163;50.626;12.922;2023-05-10T00:21:21;8.87;;;5.90;;
14167;SDS011;7163;50.626;12.922;2023-05-10T00:26:22;9.27;;;5.27;;
14167;SDS011;7163;50.626;12.922;2023-05-10T00:31:22;10.17;;;5.80;;
14167;SDS011;7163;50.626;12.922;2023-05-10T00:36:23;9.53;;;5.90;;
14167;SDS011;7163;50.626;12.922;2023-05-10T00:41:24;9.97;;;5.13;;
14167;SDS011;7163;50.626;12.922;2023-05-10T00:46:24;10.70;;;5.40;;
14167;SDS011;7163;50.626;12.922;2023-05-10T00:51:25;8.40;;;5.47;;
14167;SDS011;7163;50.626;12.922;2023-05-10T00:56:26;9.80;;;5.80;;
14167;SDS011;7163;50.626;12.922;2023-05-10T01:01:26;10.93;;;5.90;;
14167;SDS011;7163;50.626;12.922;2023-05-10T01:06:37;9.00;;;5.97;;
14167;SDS011;7163;50.626;12.922;2023-05-10T01:11:38;12.03;;;6.40;;
14167;SDS011;7163;50.626;12.922;2023-05-10T01:16:39;9.77;;;5.63;;
14167;SDS011;7163;50.626;12.922;2023-05-10T01:32:08;10.87;;;6.27;;
14167;SDS011;7163;50.626;12.922;2023-05-10T01:42:51;10.07;;;6.47;;
14167;SDS011;7163;50.626;12.922;2023-05-10T01:48:10;9.37;;;6.30;;
14167;SDS011;7163;50.626;12.922;2023-05-10T01:53:12;8.67;;;6.17;;
14167;SDS011;7163;50.626;12.922;2023-05-10T01:58:13;8.50;;;6.30;;
14167;SDS011;7163;50.626;12.922;2023-05-10T02:03:23;9.37;;;6.00;;
14167;SDS011;7163;50.626;12.922;2023-05-10T02:08:24;10.83;;;6.80;;
14167;SDS011;7163;50.626;12.922;2023-05-10T02:13:25;9.43;;;5.77;;
14167;SDS011;7163;50.626;12.922;2023-05-10T02:18:26;9.83;;;6.87;;
14167;SDS011;7163;50.626;12.922;2023-05-10T02:23:26;9.57;;;6.83;;
14167;SDS011;7163;50.626;12.922;2023-05-10T02:28:28;9.87;;;6.37;;
14167;SDS011;7163;50.626;12.922;2023-05-10T02:33:29;14.53;;;7.37;;
14167;SDS011;7163;50.626;12.922;2023-05-10T02:38:31;9.93;;;6.93;;
14167;SDS011;7163;50.626;12.922;2023-05-10T02:43:33;10.03;;;7.07;;
14167;SDS011;7163;50.626;12.922;2023-05-10T02:48:34;12.97;;;7.73;;
14167;SDS011;7163;50.626;12.922;2023-05-10T02:53:36;10.63;;;6.93;;
14167;SDS011;7163;50.626;12.922;2023-05-10T02:58:39;10.27;;;6.97;;
14167;SDS011;7163;50.626;12.922;2023-05-10T03:03:40;11.47;;;6.90;;
14167;SDS011;7163;50.626;12.922;2023-05-10T03:08:40;12.07;;;7.00;;
14167;SDS011;7163;50.626;12.922;2023-05-10T03:23:58;12.20;;;7.87;;
14167;SDS011;7163;50.626;12.922;2023-05-10T03:29:00;13.07;;;7.13;;
14167;SDS011;7163;50.626;12.922;2023-05-10T03:34:01;10.23;;;6.43;;
14167;SDS011;7163;50.626;12.922;2023-05-10T03:39:01;11.37;;;6.73;;
14167;SDS011;7163;50.626;12.922;2023-05-10T03:44:02;16.87;;;7.30;;
14167;SDS011;7163;50.626;12.922;2023-05-10T03:49:03;12.53;;;7.00;;
14167;SDS011;7163;50.626;12.922;2023-05-10T03:54:04;10.50;;;6.33;;
14167;SDS011;7163;50.626;12.922;2023-05-10T03:59:04;8.33;;;5.63;;
14167;SDS011;7163;50.626;12.922;2023-05-10T04:04:08;9.30;;;6.20;;
14167;SDS011;7163;50.626;12.922;2023-05-10T04:09:08;8.37;;;6.57;;
14167;SDS011;7163;50.626;12.922;2023-05-10T04:14:09;10.87;;;5.23;;
14167;SDS011;7163;50.626;12.922;2023-05-10T04:19:09;8.47;;;6.03;;
14167;SDS011;7163;50.626;12.922;2023-05-10T04:24:10;13.73;;;5.37;;
14167;SDS011;7163;50.626;12.922;2023-05-10T04:29:10;9.53;;;5.90;;
14167;SDS011;7163;50.626;12.922;2023-05-10T04:34:11;10.77;;;5.70;;
14167;SDS011;7163;50.626;12.922;2023-05-10T04:39:11;10.00;;;5.43;;
14167;SDS011;7163;50.626;12.922;2023-05-10T04:44:12;8.53;;;5.50;;
14167;SDS011;7163;50.626;12.922;2023-05-10T04:49:12;10.97;;;5.00;;
14167;SDS011;7163;50.626;12.922;2023-05-10T04:54:13;9.27;;;5.30;;
14167;SDS011;7163;50.626;12.922;2023-05-10T04:59:13;8.03;;;5.17;;
14167;SDS011;7163;50.626;12.922;2023-05-10T05:04:14;7.57;;;5.00;;
14167;SDS011;7163;50.626;12.922;2023-05-10T05:09:14;7.07;;;5.10;;
14167;SDS011;7163;50.626;12.922;2023-05-10T05:14:15;10.53;;;4.23;;
14167;SDS011;7163;50.626;12.922;2023-05-10T05:19:15;8.90;;;4.50;;
14167;SDS011;7163;50.626;12.922;2023-05-10T05:24:15;6.07;;;4.40;;
14167;SDS011;7163;50.626;12.922;2023-05-10T05:29:16;13.27;;;5.33;;
14167;SDS011;7163;50.626;12.922;2023-05-10T05:34:16;11.33;;;4.40;;
14167;SDS011;7163;50.626;12.922;2023-05-10T05:39:17;8.13;;;5.27;;
14167;SDS011;7163;50.626;12.922;2023-05-10T05:44:17;6.33;;;3.90;;
14167;SDS011;7163;50.626;12.922;2023-05-10T05:49:18;8.80;;;4.47;;
14167;SDS011;7163;50.626;12.922;2023-05-10T05:54:18;6.80;;;4.63;;
14167;SDS011;7163;50.626;12.922;2023-05-10T05:59:18;9.27;;;4.47;;
14167;SDS011;7163;50.626;12.922;2023-05-10T06:04:19;8.57;;;4.70;;
14167;SDS011;7163;50.626;12.922;2023-05-10T06:09:19;9.43;;;4.30;;
14167;SDS011;7163;50.626;12.922;2023-05-10T06:14:21;10.70;;;4.50;;
14167;SDS011;7163;50.626;12.922;2023-05-10T06:19:22;10.97;;;4.80;;
14167;SDS011;7163;50.626;12.922;2023-05-10T06:24:22;8.47;;;4.57;;
14167;SDS011;7163;50.626;12.922;2023-05-10T06:29:23;6.63;;;4.43;;
14167;SDS011;7163;50.626;12.922;2023-05-10T06:34:23;7.87;;;4.47;;
14167;SDS011;7163;50.626;12.922;2023-05-10T06:39:23;7.37;;;4.27;;
14167;SDS011;7163;50.626;12.922;2023-05-10T06:44:24;11.47;;;4.53;;
14167;SDS011;7163;50.626;12.922;2023-05-10T06:49:24;9.00;;;4.57;;
14167;SDS011;7163;50.626;12.922;2023-05-10T06:54:25;7.10;;;4.03;;
14167;SDS011;7163;50.626;12.922;2023-05-10T06:59:25;6.20;;;4.03;;
14167;SDS011;7163;50.626;12.922;2023-05-10T07:04:26;10.40;;;4.97;;
14167;SDS011;7163;50.626;12.922;2023-05-10T07:09:26;6.43;;;4.50;;
14167;SDS011;7163;50.626;12.922;2023-05-10T07:14:27;9.30;;;4.37;;
14167;SDS011;7163;50.626;12.922;2023-05-10T07:19:27;6.43;;;4.50;;
14167;SDS011;7163;50.626;12.922;2023-05-10T07:24:29;6.63;;;4.23;;
14167;SDS011;7163;50.626;12.922;2023-05-10T07:29:31;7.43;;;4.30;;
14167;SDS011;7163;50.626;12.922;2023-05-10T07:34:32;9.87;;;4.90;;
14167;SDS011;7163;50.626;12.922;2023-05-10T07:39:32;18.80;;;5.57;;
14167;SDS011;7163;50.626;12.922;2023-05-10T07:44:33;10.97;;;5.20;;
14167;SDS011;7163;50.626;12.922;2023-05-10T07:49:34;6.90;;;4.27;;
14167;SDS011;7163;50.626;12.922;2023-05-10T07:54:35;7.10;;;4.80;;
14167;SDS011;7163;50.626;12.922;2023-05-10T07:59:38;9.87;;;4.77;;
14167;SDS011;7163;50.626;12.922;2023-05-10T08:04:39;8.50;;;4.60;;
14167;SDS011;7163;50.626;12.922;2023-05-10T08:09:39;10.17;;;4.70;;
14167;SDS011;7163;50.626;12.922;2023-05-10T08:14:40;9.50;;;4.40;;
14167;SDS011;7163;50.626;12.922;2023-05-10T08:19:40;9.53;;;5.57;;
14167;SDS011;7163;50.626;12.922;2023-05-10T08:24:41;7.03;;;4.37;;
14167;SDS011;7163;50.626;12.922;2023-05-10T08:29:42;10.17;;;5.10;;
14167;SDS011;7163;50.626;12.922;2023-05-10T08:34:43;11.23;;;4.83;;
14167;SDS011;7163;50.626;12.922;2023-05-10T08:39:43;11.77;;;5.53;;
14167;SDS011;7163;50.626;12.922;2023-05-10T08:44:45;10.10;;;5.33;;
14167;SDS011;7163;50.626;12.922;2023-05-10T08:49:47;11.80;;;5.60;;
14167;SDS011;7163;50.626;12.922;2023-05-10T08:54:54;27.27;;;15.27;;
14167;SDS011;7163;50.626;12.922;2023-05-10T08:59:54;11.97;;;6.30;;
14167;SDS011;7163;50.626;12.922;2023-05-10T09:04:55;9.00;;;6.57;;
14167;SDS011;7163;50.626;12.922;2023-05-10T09:09:55;9.37;;;6.73;;
14167;SDS011;7163;50.626;12.922;2023-05-10T09:14:57;12.87;;;6.67;;
14167;SDS011;7163;50.626;12.922;2023-05-10T09:19:58;10.77;;;6.37;;
14167;SDS011;7163;50.626;12.922;2023-05-10T09:30:17;9.77;;;5.50;;
14167;SDS011;7163;50.626;12.922;2023-05-10T09:35:28;12.73;;;6.43;;
14167;SDS011;7163;50.626;12.922;2023-05-10T09:40:29;11.50;;;5.70;;
14167;SDS011;7163;50.626;12.922;2023-05-10T09:45:33;16.07;;;5.60;;
14167;SDS011;7163;50.626;12.922;2023-05-10T09:50:34;13.00;;;6.00;;
14167;SDS011;7163;50.626;12.922;2023-05-10T09:55:44;14.17;;;5.53;;
14167;SDS011;7163;50.626;12.922;2023-05-10T10:00:46;12.27;;;5.53;;
14167;SDS011;7163;50.626;12.922;2023-05-10T10:05:48;11.83;;;5.03;;
14167;SDS011;7163;50.626;12.922;2023-05-10T10:10:48;7.90;;;5.07;;
14167;SDS011;7163;50.626;12.922;2023-05-10T10:15:49;9.97;;;5.47;;
14167;SDS011;7163;50.626;12.922;2023-05-10T10:20:50;11.80;;;5.53;;
14167;SDS011;7163;50.626;12.922;2023-05-10T10:25:52;7.33;;;5.33;;
14167;SDS011;7163;50.626;12.922;2023-05-10T10:30:56;14.63;;;5.77;;
14167;SDS011;7163;50.626;12.922;2023-05-10T10:36:02;11.27;;;5.50;;
14167;SDS011;7163;50.626;12.922;2023-05-10T10:41:10;11.97;;;6.73;;
14167;SDS011;7163;50.626;12.922;2023-05-10T10:46:27;11.37;;;7.23;;
14167;SDS011;7163;50.626;12.922;2023-05-10T10:51:28;10.57;;;6.77;;
14167;SDS011;7163;50.626;12.922;2023-05-10T10:56:29;12.73;;;6.93;;
14167;SDS011;7163;50.626;12.922;2023-05-10T11:01:33;15.67;;;7.83;;
14167;SDS011;7163;50.626;12.922;2023-05-10T11:06:37;18.60;;;8.83;;
14167;SDS011;7163;50.626;12.922;2023-05-10T11:11:51;16.53;;;9.30;;
14167;SDS011;7163;50.626;12.922;2023-05-10T11:16:52;14.97;;;9.03;;
14167;SDS011;7163;50.626;12.922;2023-05-10T11:27:08;16.27;;;10.47;;
14167;SDS011;7163;50.626;12.922;2023-05-10T11:32:09;11.50;;;8.87;;
14167;SDS011;7163;50.626;12.922;2023-05-10T11:37:13;15.27;;;9.87;;
14167;SDS011;7163;50.626;12.922;2023-05-10T11:42:13;15.90;;;10.30;;
14167;SDS011;7163;50.626;12.922;2023-05-10T11:47:14;16.00;;;11.33;;
14167;SDS011;7163;50.626;12.922;2023-05-10T11:52:15;17.93;;;10.07;;
14167;SDS011;7163;50.626;12.922;2023-05-10T11:57:18;14.83;;;10.87;;
14167;SDS011;7163;50.626;12.922;2023-05-10T12:02:21;15.53;;;11.53;;
14167;SDS011;7163;50.626;12.922;2023-05-10T12:07:21;15.67;;;10.43;;
14167;SDS011;7163;50.626;12.922;2023-05-10T12:12:22;15.80;;;11.13;;
14167;SDS011;7163;50.626;12.922;2023-05-10T12:17:26;24.63;;;13.90;;
14167;SDS011;7163;50.626;12.922;2023-05-10T12:22:27;56.67;;;15.13;;
14167;SDS011;7163;50.626;12.922;2023-05-10T12:27:31;15.83;;;10.47;;
14167;SDS011;7163;50.626;12.922;2023-05-10T12:32:39;27.07;;;13.50;;
14167;SDS011;7163;50.626;12.922;2023-05-10T12:37:41;16.57;;;9.80;;
14167;SDS011;7163;50.626;12.922;2023-05-10T12:42:42;15.33;;;11.90;;
14167;SDS011;7163;50.626;12.922;2023-05-10T12:47:46;39.37;;;13.80;;
14167;SDS011;7163;50.626;12.922;2023-05-10T12:52:47;21.37;;;11.57;;
14167;SDS011;7163;50.626;12.922;2023-05-10T12:57:47;14.57;;;9.60;;
14167;SDS011;7163;50.626;12.922;2023-05-10T13:02:48;13.10;;;8.33;;
14167;SDS011;7163;50.626;12.922;2023-05-10T13:07:48;54.63;;;14.27;;
14167;SDS011;7163;50.626;12.922;2023-05-10T13:12:49;16.07;;;8.33;;
14167;SDS011;7163;50.626;12.922;2023-05-10T13:17:50;13.03;;;8.53;;
14167;SDS011;7163;50.626;12.922;2023-05-10T13:22:51;13.60;;;9.00;;
14167;SDS011;7163;50.626;12.922;2023-05-10T13:27:52;74.63;;;13.67;;
14167;SDS011;7163;50.626;12.922;2023-05-10T13:32:52;13.60;;;8.10;;
14167;SDS011;7163;50.626;12.922;2023-05-10T13:37:56;15.33;;;8.70;;
14167;SDS011;7163;50.626;12.922;2023-05-10T13:42:57;15.60;;;9.53;;
14167;SDS011;7163;50.626;12.922;2023-05-10T13:47:58;16.60;;;8.83;;
14167;SDS011;7163;50.626;12.922;2023-05-10T13:52:59;14.93;;;9.03;;
14167;SDS011;7163;50.626;12.922;2023-05-10T13:57:59;11.03;;;8.37;;
14167;SDS011;7163;50.626;12.922;2023-05-10T14:03:00;12.57;;;7.13;;
14167;SDS011;7163;50.626;12.922;2023-05-10T14:08:00;8.77;;;6.90;;
14167;SDS011;7163;50.626;12.922;2023-05-10T14:13:01;11.57;;;7.57;;
14167;SDS011;7163;50.626;12.922;2023-05-10T14:18:04;12.87;;;9.00;;
14167;SDS011;7163;50.626;12.922;2023-05-10T14:23:17;11.60;;;6.47;;
14167;SDS011;7163;50.626;12.922;2023-05-10T14:28:19;9.03;;;5.97;;
14167;SDS011;7163;50.626;12.922;2023-05-10T14:33:20;9.30;;;5.97;;
14167;SDS011;7163;50.626;12.922;2023-05-10T14:38:24;8.33;;;5.43;;
14167;SDS011;7163;50.626;12.922;2023-05-10T14:43:24;9.30;;;7.20;;
14167;SDS011;7163;50.626;12.922;2023-05-10T14:48:24;9.37;;;5.90;;
14167;SDS011;7163;50.626;12.922;2023-05-10T14:53:25;7.13;;;4.93;;
14167;SDS011;7163;50.626;12.922;2023-05-10T14:58:26;6.97;;;4.73;;
14167;SDS011;7163;50.626;12.922;2023-05-10T15:03:27;9.00;;;6.57;;
14167;SDS011;7163;50.626;12.922;2023-05-10T15:08:27;10.80;;;6.60;;
14167;SDS011;7163;50.626;12.922;2023-05-10T15:13:27;11.67;;;7.87;;
14167;SDS011;7163;50.626;12.922;2023-05-10T15:18:28;21.53;;;13.93;;
14167;SDS011;7163;50.626;12.922;2023-05-10T15:23:28;18.83;;;14.23;;
14167;SDS011;7163;50.626;12.922;2023-05-10T15:28:29;16.50;;;11.87;;
14167;SDS011;7163;50.626;12.922;2023-05-10T15:33:30;12.67;;;9.90;;
14167;SDS011;7163;50.626;12.922;2023-05-10T15:38:38;13.97;;;10.63;;
14167;SDS011;7163;50.626;12.922;2023-05-10T15:43:39;19.00;;;12.07;;
14167;SDS011;7163;50.626;12.922;2023-05-10T15:48:39;22.13;;;14.07;;
14167;SDS011;7163;50.626;12.922;2023-05-10T15:53:40;19.03;;;13.40;;
14167;SDS011;7163;50.626;12.922;2023-05-10T15:58:42;23.97;;;16.93;;
14167;SDS011;7163;50.626;12.922;2023-05-10T16:03:43;20.80;;;15.37;;
14167;SDS011;7163;50.626;12.922;2023-05-10T16:08:44;15.60;;;11.67;;
14167;SDS011;7163;50.626;12.922;2023-05-10T16:13:44;16.70;;;12.47;;
14167;SDS011;7163;50.626;12.922;2023-05-10T16:18:45;16.93;;;12.20;;
14167;SDS011;7163;50.626;12.922;2023-05-10T16:23:45;16.73;;;13.00;;
14167;SDS011;7163;50.626;12.922;2023-05-10T16:28:46;20.57;;;13.67;;
14167;SDS011;7163;50.626;12.922;2023-05-10T16:33:47;18.83;;;15.07;;
14167;SDS011;7163;50.626;12.922;2023-05-10T16:38:49;23.07;;;16.53;;
14167;SDS011;7163;50.626;12.922;2023-05-10T16:43:50;22.33;;;16.60;;
14167;SDS011;7163;50.626;12.922;2023-05-10T16:48:51;16.50;;;12.27;;
14167;SDS011;7163;50.626;12.922;2023-05-10T16:53:52;21.90;;;16.03;;
14167;SDS011;7163;50.626;12.922;2023-05-10T16:58:55;19.30;;;14.13;;
14167;SDS011;7163;50.626;12.922;2023-05-10T17:03:55;25.13;;;20.13;;
14167;SDS011;7163;50.626;12.922;2023-05-10T17:08:56;24.40;;;19.13;;
14167;SDS011;7163;50.626;12.922;2023-05-10T17:13:57;22.80;;;17.27;;
14167;SDS011;7163;50.626;12.922;2023-05-10T17:18:58;23.77;;;17.67;;
14167;SDS011;7163;50.626;12.922;2023-05-10T17:23:58;20.63;;;15.60;;
14167;SDS011;7163;50.626;12.922;2023-05-10T17:28:59;23.47;;;16.60;;
14167;SDS011;7163;50.626;12.922;2023-05-10T17:34:02;22.10;;;17.23;;
14167;SDS011;7163;50.626;12.922;2023-05-10T17:39:03;24.77;;;18.30;;
14167;SDS011;7163;50.626;12.922;2023-05-10T17:44:03;26.30;;;20.67;;
14167;SDS011;7163;50.626;12.922;2023-05-10T17:49:03;21.77;;;15.70;;
14167;SDS011;7163;50.626;12.922;2023-05-10T17:54:04;29.60;;;19.63;;
14167;SDS011;7163;50.626;12.922;2023-05-10T17:59:05;37.43;;;27.60;;
14167;SDS011;7163;50.626;12.922;2023-05-10T18:04:05;33.30;;;23.00;;
14167;SDS011;7163;50.626;12.922;2023-05-10T18:09:07;31.33;;;21.47;;
14167;SDS011;7163;50.626;12.922;2023-05-10T18:14:07;28.20;;;19.47;;
14167;SDS011;7163;50.626;12.922;2023-05-10T18:19:10;26.03;;;19.90;;
14167;SDS011;7163;50.626;12.922;2023-05-10T18:24:11;26.13;;;17.33;;
14167;SDS011;7163;50.626;12.922;2023-05-10T18:29:11;23.23;;;16.13;;
14167;SDS011;7163;50.626;12.922;2023-05-10T18:34:12;27.43;;;18.03;;
14167;SDS011;7163;50.626;12.922;2023-05-10T18:39:12;22.37;;;16.63;;
14167;SDS011;7163;50.626;12.922;2023-05-10T18:44:13;25.13;;;18.10;;
14167;SDS011;7163;50.626;12.922;2023-05-10T18:49:19;26.83;;;18.80;;
14167;SDS011;7163;50.626;12.922;2023-05-10T18:54:22;24.73;;;17.60;;
14167;SDS011;7163;50.626;12.922;2023-05-10T18:59:26;21.87;;;15.60;;
14167;SDS011;7163;50.626;12.922;2023-05-10T19:04:32;21.97;;;17.10;;
14167;SDS011;7163;50.626;12.922;2023-05-10T19:09:33;42.00;;;31.83;;
14167;SDS011;7163;50.626;12.922;2023-05-10T19:14:33;20.30;;;14.87;;
14167;SDS011;7163;50.626;12.922;2023-05-10T19:19:34;16.20;;;12.80;;
14167;SDS011;7163;50.626;12.922;2023-05-10T19:24:34;18.33;;;12.93;;
14167;SDS011;7163;50.626;12.922;2023-05-10T19:29:37;18.53;;;13.37;;
14167;SDS011;7163;50.626;12.922;2023-05-10T19:34:38;21.77;;;15.20;;
14167;SDS011;7163;50.626;12.922;2023-05-10T19:39:38;21.50;;;14.87;;
14167;SDS011;7163;50.626;12.922;2023-05-10T19:44:38;19.57;;;12.30;;
14167;SDS011;7163;50.626;12.922;2023-05-10T19:49:39;15.57;;;11.33;;
14167;SDS011;7163;50.626;12.922;2023-05-10T19:54:39;16.03;;;11.97;;
14167;SDS011;7163;50.626;12.922;2023-05-10T19:59:40;18.77;;;13.73;;
14167;SDS011;7163;50.626;12.922;2023-05-10T20:04:40;18.37;;;13.60;;
14167;SDS011;7163;50.626;12.922;2023-05-10T20:09:41;25.23;;;14.80;;
14167;SDS011;7163;50.626;12.922;2023-05-10T20:14:43;23.37;;;15.47;;
14167;SDS011;7163;50.626;12.922;2023-05-10T20:19:43;16.37;;;12.07;;
14167;SDS011;7163;50.626;12.922;2023-05-10T20:24:44;18.03;;;11.83;;
14167;SDS011;7163;50.626;12.922;2023-05-10T20:29:44;17.93;;;11.87;;
14167;SDS011;7163;50.626;12.922;2023-05-10T20:34:45;18.30;;;11.07;;
14167;SDS011;7163;50.626;12.922;2023-05-10T20:39:45;15.67;;;11.60;;
14167;SDS011;7163;50.626;12.922;2023-05-10T20:44:45;15.23;;;9.80;;
14167;SDS011;7163;50.626;12.922;2023-05-10T20:49:46;14.37;;;10.50;;
14167;SDS011;7163;50.626;12.922;2023-05-10T20:54:46;13.13;;;9.53;;
14167;SDS011;7163;50.626;12.922;2023-05-10T20:59:48;13.17;;;9.40;;
14167;SDS011;7163;50.626;12.922;2023-05-10T21:04:49;10.83;;;8.20;;
14167;SDS011;7163;50.626;12.922;2023-05-10T21:09:49;11.17;;;8.20;;
14167;SDS011;7163;50.626;12.922;2023-05-10T21:14:50;9.70;;;7.10;;
14167;SDS011;7163;50.626;12.922;2023-05-10T21:19:50;11.67;;;7.90;;
14167;SDS011;7163;50.626;12.922;2023-05-10T21:24:51;15.10;;;9.97;;
14167;SDS011;7163;50.626;12.922;2023-05-10T21:29:51;14.97;;;10.17;;
14167;SDS011;7163;50.626;12.922;2023-05-10T21:34:52;14.13;;;9.33;;
14167;SDS011;7163;50.626;12.922;2023-05-10T21:39:52;16.37;;;11.20;;
14167;SDS011;7163;50.626;12.922;2023-05-10T21:44:53;17.60;;;10.83;;
14167;SDS011;7163;50.626;12.922;2023-05-10T21:49:53;15.57;;;10.03;;
14167;SDS011;7163;50.626;12.922;2023-05-10T21:54:54;57.40;;;24.10;;
14167;SDS011;7163;50.626;12.922;2023-05-10T21:59:54;13.00;;;9.10;;
14167;SDS011;7163;50.626;12.922;2023-05-10T22:04:55;14.00;;;9.57;;
14167;SDS011;7163;50.626;12.922;2023-05-10T22:09:56;13.57;;;9.90;;
14167;SDS011;7163;50.626;12.922;2023-05-10T22:14:56;13.63;;;9.63;;
14167;SDS011;7163;50.626;12.922;2023-05-10T22:19:57;12.00;;;8.77;;
14167;SDS011;7163;50.626;12.922;2023-05-10T22:24:57;11.73;;;7.97;;
14167;SDS011;7163;50.626;12.922;2023-05-10T22:29:58;13.20;;;9.27;;
14167;SDS011;7163;50.626;12.922;2023-05-10T22:34:58;10.60;;;8.37;;
14167;SDS011;7163;50.626;12.922;2023-05-10T22:39:58;12.80;;;9.67;;
14167;SDS011;7163;50.626;12.922;2023-05-10T22:44:59;14.33;;;10.03;;
14167;SDS011;7163;50.626;12.922;2023-05-10T22:49:59;18.80;;;13.63;;
14167;SDS011;7163;50.626;12.922;2023-05-10T22:55:02;26.20;;;16.97;;
14167;SDS011;7163;50.626;12.922;2023-05-10T23:00:03;34.60;;;21.87;;
14167;SDS011;7163;50.626;12.922;2023-05-10T23:05:04;30.17;;;20.37;;
14167;SDS011;7163;50.626;12.922;2023-05-10T23:10:06;26.47;;;18.57;;
14167;SDS011;7163;50.626;12.922;2023-05-10T23:15:07;27.47;;;19.43;;
14167;SDS011;7163;50.626;12.922;2023-05-10T23:20:09;27.73;;;19.13;;
14167;SDS011;7163;50.626;12.922;2023-05-10T23:25:10;25.20;;;18.67;;
14167;SDS011;7163;50.626;12.922;2023-05-10T23:30:10;23.73;;;16.83;;
14167;SDS011;7163;50.626;12.922;2023-05-10T23:35:11;22.97;;;16.70;;
14167;SDS011;7163;50.626;12.922;2023-05-10T23:40:12;26.03;;;17.40;;
14167;SDS011;7163;50.626;12.922;2023-05-10T23:45:13;25.23;;;18.40;;
14167;SDS011;7163;50.626;12.922;2023-05-10T23:50:13;29.07;;;19.13;;
14167;SDS011;7163;50.626;12.922;2023-05-10T23:55:14;30.10;;;20.63;;
